createdAt,value
2022-08-29T00:00:17.904Z,1.83
2022-08-29T00:02:51.997Z,1.80
2022-08-29T00:05:25.100Z,1.85
2022-08-29T00:07:53.700Z,1.77
2022-08-29T00:10:22.872Z,2.08
2022-08-29T00:12:52.040Z,2.42
2022-08-29T00:15:21.344Z,2.08
2022-08-29T00:17:51.478Z,1.83
2022-08-29T00:20:34.064Z,2.38
2022-08-29T00:23:04.543Z,2.20
2022-08-29T00:25:33.019Z,2.05
2022-08-29T00:28:01.614Z,1.70
2022-08-29T00:30:30.189Z,2.55
2022-08-29T00:32:59.810Z,2.47
2022-08-29T00:35:33.287Z,2.00
2022-08-29T00:38:05.630Z,2.40
2022-08-29T00:40:38.873Z,1.80
2022-08-29T00:43:08.570Z,2.00
2022-08-29T00:45:39.821Z,1.63
2022-08-29T00:48:15.599Z,2.13
2022-08-29T00:50:50.177Z,1.90
2022-08-29T00:53:23.958Z,2.22
2022-08-29T00:55:52.490Z,1.98
2022-08-29T00:58:29.452Z,2.10
2022-08-29T01:00:58.342Z,2.03
2022-08-29T01:03:29.036Z,2.35
2022-08-29T01:05:57.324Z,3.25
2022-08-29T01:08:25.886Z,2.75
2022-08-29T01:11:11.858Z,1.95
2022-08-29T01:13:45.547Z,2.10
2022-08-29T01:16:15.911Z,1.92
2022-08-29T01:18:49.414Z,1.73
2022-08-29T01:21:30.535Z,2.17
2022-08-29T01:24:11.785Z,2.58
2022-08-29T01:26:42.042Z,2.20
2022-08-29T01:29:10.947Z,2.40
2022-08-29T01:31:56.361Z,2.40
2022-08-29T01:34:27.408Z,2.58
2022-08-29T01:36:59.243Z,2.25
2022-08-29T01:39:31.783Z,2.25
2022-08-29T01:42:05.404Z,2.33
2022-08-29T01:44:33.979Z,1.98
2022-08-29T01:47:03.599Z,2.22
2022-08-29T01:49:35.318Z,2.33
2022-08-29T01:52:07.971Z,2.50
2022-08-29T01:54:36.504Z,2.30
2022-08-29T01:57:10.862Z,2.35
2022-08-29T01:59:41.647Z,2.50
2022-08-29T02:02:16.595Z,2.25
2022-08-29T02:04:47.188Z,2.55
2022-08-29T02:07:18.670Z,2.30
2022-08-29T02:09:48.613Z,3.03
2022-08-29T02:12:20.555Z,2.78
2022-08-29T02:14:50.623Z,2.28
2022-08-29T02:17:20.912Z,2.50
2022-08-29T02:19:49.362Z,2.67
2022-08-29T02:22:18.956Z,2.20
2022-08-29T02:24:47.259Z,2.55
2022-08-29T02:27:17.086Z,2.42
2022-08-29T02:29:45.310Z,2.70
2022-08-29T02:32:15.869Z,2.88
2022-08-29T02:34:47.700Z,2.40
2022-08-29T02:37:19.062Z,2.42
2022-08-29T02:39:47.319Z,2.45
2022-08-29T02:42:17.792Z,2.40
2022-08-29T02:44:47.345Z,2.85
2022-08-29T02:47:15.955Z,2.83
2022-08-29T02:49:44.210Z,2.33
2022-08-29T02:52:12.911Z,2.50
2022-08-29T02:54:41.171Z,2.80
2022-08-29T02:57:09.649Z,2.72
2022-08-29T02:59:39.818Z,2.97
2022-08-29T03:02:08.179Z,2.72
2022-08-29T03:04:36.702Z,2.80
2022-08-29T03:07:06.200Z,3.03
2022-08-29T03:09:34.906Z,2.92
2022-08-29T03:12:03.328Z,2.70
2022-08-29T03:14:31.831Z,3.13
2022-08-29T03:17:01.798Z,3.50
2022-08-29T03:19:30.213Z,4.07
2022-08-29T03:21:58.415Z,2.88
2022-08-29T03:24:27.209Z,3.28
2022-08-29T03:26:57.172Z,3.78
2022-08-29T03:29:29.438Z,3.47
2022-08-29T03:31:58.749Z,3.72
2022-08-29T03:34:29.285Z,4.43
2022-08-29T03:36:58.283Z,3.25
2022-08-29T03:39:27.132Z,3.72
2022-08-29T03:41:55.475Z,3.90
2022-08-29T03:44:24.024Z,3.63
2022-08-29T03:46:52.270Z,3.67
2022-08-29T03:49:20.929Z,4.20
2022-08-29T03:51:50.878Z,4.40
2022-08-29T03:54:19.319Z,4.15
2022-08-29T03:56:48.066Z,3.75
2022-08-29T03:59:17.614Z,3.90
2022-08-29T04:01:48.057Z,4.40
2022-08-29T04:04:37.405Z,3.85
2022-08-29T04:07:08.793Z,4.15
2022-08-29T04:09:38.593Z,4.45
2022-08-29T04:12:07.467Z,3.85
2022-08-29T04:14:35.815Z,3.88
2022-08-29T04:17:05.030Z,4.07
2022-08-29T04:19:35.194Z,4.03
2022-08-29T04:22:04.147Z,4.13
2022-08-29T04:24:34.593Z,3.30
2022-08-29T04:27:02.760Z,4.20
2022-08-29T04:29:31.085Z,4.88
2022-08-29T04:31:59.464Z,4.90
2022-08-29T04:34:28.104Z,4.43
2022-08-29T04:36:56.322Z,5.07
2022-08-29T04:39:24.546Z,5.85
2022-08-29T04:41:54.130Z,4.97
2022-08-29T04:44:22.295Z,5.53
2022-08-29T04:46:50.534Z,5.60
2022-08-29T04:49:19.532Z,4.72
2022-08-29T04:51:47.755Z,5.10
2022-08-29T04:54:15.926Z,4.70
2022-08-29T04:56:47.293Z,4.93
2022-08-29T04:59:19.438Z,4.85
2022-08-29T05:01:48.974Z,4.93
2022-08-29T05:04:17.150Z,4.25
2022-08-29T05:06:45.331Z,4.65
2022-08-29T05:09:13.754Z,5.82
2022-08-29T05:11:42.692Z,4.82
2022-08-29T05:14:11.290Z,4.95
2022-08-29T05:16:41.927Z,4.80
2022-08-29T05:19:11.697Z,4.40
2022-08-29T05:21:41.327Z,4.07
2022-08-29T05:24:12.969Z,4.50
2022-08-29T05:26:45.325Z,4.10
2022-08-29T05:29:14.202Z,4.20
2022-08-29T05:31:45.809Z,4.57
2022-08-29T05:34:34.916Z,4.68
2022-08-29T05:37:02.992Z,4.20
2022-08-29T05:39:31.175Z,4.00
2022-08-29T05:42:00.356Z,4.15
2022-08-29T05:44:34.919Z,5.00
2022-08-29T05:49:36.676Z,4.95
2022-08-29T05:52:06.252Z,4.38
2022-08-29T05:54:37.956Z,4.07
2022-08-29T05:57:07.550Z,4.15
2022-08-29T05:59:36.928Z,3.83
2022-08-29T06:02:10.950Z,4.93
2022-08-29T06:04:40.617Z,4.72
2022-08-29T06:07:09.883Z,4.18
2022-08-29T06:09:39.581Z,3.83
2022-08-29T06:12:10.838Z,4.20
2022-08-29T06:14:39.495Z,5.80
2022-08-29T06:17:09.976Z,5.88
2022-08-29T06:19:39.453Z,4.40
2022-08-29T06:22:10.791Z,4.28
2022-08-29T06:24:40.620Z,4.03
2022-08-29T06:27:14.273Z,3.58
2022-08-29T06:29:43.605Z,4.72
2022-08-29T06:32:14.153Z,4.57
2022-08-29T06:34:42.831Z,4.57
2022-08-29T06:37:11.308Z,3.90
2022-08-29T06:39:39.517Z,4.20
2022-08-29T06:42:07.991Z,4.22
2022-08-29T06:44:38.406Z,4.13
2022-08-29T06:47:08.426Z,4.07
2022-08-29T06:49:37.993Z,4.13
2022-08-29T06:52:06.446Z,4.00
2022-08-29T06:54:34.869Z,3.70
2022-08-29T06:57:04.466Z,4.38
2022-08-29T06:59:32.655Z,4.07
2022-08-29T07:02:00.864Z,4.65
2022-08-29T07:04:30.127Z,4.45
2022-08-29T07:07:00.217Z,4.57
2022-08-29T07:09:30.905Z,3.95
2022-08-29T07:11:58.976Z,3.67
2022-08-29T07:14:27.129Z,3.80
2022-08-29T07:16:56.557Z,3.55
2022-08-29T07:19:24.724Z,3.88
2022-08-29T07:21:54.298Z,4.07
2022-08-29T07:24:27.911Z,3.78
2022-08-29T07:26:56.116Z,3.25
2022-08-29T07:29:24.764Z,3.50
2022-08-29T07:31:53.483Z,3.42
2022-08-29T07:34:21.609Z,3.42
2022-08-29T07:36:50.058Z,3.65
2022-08-29T07:39:20.371Z,3.55
2022-08-29T07:41:50.057Z,3.88
2022-08-29T07:44:20.156Z,3.63
2022-08-29T07:46:48.470Z,3.55
2022-08-29T07:49:16.689Z,3.38
2022-08-29T07:51:44.963Z,3.95
2022-08-29T07:54:16.516Z,3.00
2022-08-29T07:56:45.119Z,3.45
2022-08-29T07:59:15.613Z,3.42
2022-08-29T08:01:44.290Z,3.92
2022-08-29T08:04:13.009Z,3.40
2022-08-29T08:06:43.616Z,2.90
2022-08-29T08:09:14.061Z,3.35
2022-08-29T08:11:43.565Z,3.40
2022-08-29T08:14:12.255Z,3.15
2022-08-29T08:16:44.276Z,3.00
2022-08-29T08:19:14.260Z,3.13
2022-08-29T08:21:49.424Z,3.25
2022-08-29T08:24:19.914Z,3.30
2022-08-29T08:26:49.420Z,3.40
2022-08-29T08:29:17.974Z,3.38
2022-08-29T08:31:50.819Z,3.05
2022-08-29T08:34:20.544Z,2.83
2022-08-29T08:36:48.654Z,3.10
2022-08-29T08:39:16.782Z,3.03
2022-08-29T08:41:57.109Z,3.28
2022-08-29T08:44:58.232Z,3.25
2022-08-29T08:47:33.409Z,3.30
2022-08-29T08:52:42.336Z,3.05
2022-08-29T08:55:23.588Z,3.00
2022-08-29T08:58:02.727Z,2.72
2022-08-29T09:00:41.229Z,3.13
2022-08-29T09:03:38.485Z,4.50
2022-08-29T09:06:18.899Z,3.45
2022-08-29T09:08:54.947Z,3.08
2022-08-29T09:11:36.403Z,2.88
2022-08-29T09:14:12.168Z,3.22
2022-08-29T09:16:49.955Z,3.53
2022-08-29T09:19:19.544Z,2.65
2022-08-29T09:21:52.687Z,3.00
2022-08-29T09:24:29.723Z,2.65
2022-08-29T09:26:58.250Z,2.90
2022-08-29T09:29:29.919Z,2.50
2022-08-29T09:32:09.875Z,2.42
2022-08-29T09:35:07.283Z,2.47
2022-08-29T09:37:36.055Z,2.40
2022-08-29T09:40:10.986Z,2.55
2022-08-29T09:42:44.737Z,2.58
2022-08-29T09:45:21.923Z,2.50
2022-08-29T09:47:50.129Z,2.38
2022-08-29T09:50:25.494Z,2.25
2022-08-29T09:55:31.501Z,2.45
2022-08-29T09:58:05.146Z,2.28
2022-08-29T10:00:37.832Z,2.53
2022-08-29T10:03:12.460Z,2.38
2022-08-29T10:05:45.415Z,1.90
2022-08-29T10:08:31.187Z,2.55
2022-08-29T10:13:41.494Z,2.17
2022-08-29T10:16:19.804Z,2.25
2022-08-29T10:18:53.776Z,2.03
2022-08-29T10:21:34.979Z,2.35
2022-08-29T10:24:31.981Z,2.17
2022-08-29T10:27:10.803Z,2.25
2022-08-29T10:29:59.102Z,2.58
2022-08-29T10:32:56.534Z,2.30
2022-08-29T10:35:30.782Z,2.20
2022-08-29T10:38:09.924Z,2.30
2022-08-29T10:40:48.528Z,2.13
2022-08-29T10:43:39.978Z,2.13
2022-08-29T10:46:34.712Z,2.00
2022-08-29T10:49:19.182Z,2.23
2022-08-29T10:51:59.642Z,2.10
2022-08-29T10:54:40.038Z,2.40
2022-08-29T10:57:10.149Z,2.03
2022-08-29T10:59:58.377Z,2.33
2022-08-29T11:02:33.314Z,2.22
2022-08-29T11:05:09.185Z,2.15
2022-08-29T11:07:46.908Z,2.33
2022-08-29T11:10:20.358Z,2.40
2022-08-29T11:13:01.302Z,2.50
2022-08-29T11:15:41.410Z,2.25
2022-08-29T11:18:22.391Z,2.17
2022-08-29T11:20:57.760Z,1.73
2022-08-29T11:23:42.980Z,2.10
2022-08-29T11:26:27.323Z,2.33
2022-08-29T11:29:03.311Z,2.20
2022-08-29T11:31:49.826Z,2.10
2022-08-29T11:34:45.938Z,2.20
2022-08-29T11:40:12.572Z,1.80
2022-08-29T11:42:50.974Z,1.75
2022-08-29T11:45:35.637Z,2.10
2022-08-29T11:48:31.397Z,2.05
2022-08-29T11:51:01.391Z,1.90
2022-08-29T11:53:35.096Z,2.28
2022-08-29T11:56:30.980Z,2.05
2022-08-29T12:02:02.078Z,2.00
2022-08-29T12:04:56.673Z,1.70
2022-08-29T12:07:37.031Z,1.85
2022-08-29T12:10:12.242Z,2.10
2022-08-29T12:12:46.394Z,2.00
2022-08-29T12:15:58.019Z,1.88
2022-08-29T12:18:47.778Z,1.90
2022-08-29T12:21:47.130Z,2.10
2022-08-29T12:24:33.422Z,1.98
2022-08-29T12:27:02.166Z,2.05
2022-08-29T12:29:43.581Z,2.15
2022-08-29T12:32:56.056Z,1.83
2022-08-29T12:35:47.481Z,2.20
2022-08-29T12:38:31.310Z,2.10
2022-08-29T12:41:18.296Z,2.00
2022-08-29T12:43:47.558Z,2.08
2022-08-29T12:46:24.571Z,1.98
2022-08-29T12:49:04.117Z,1.90
2022-08-29T12:51:36.417Z,1.92
2022-08-29T12:54:05.864Z,2.20
2022-08-29T12:56:35.706Z,2.33
2022-08-29T12:59:06.109Z,1.88
2022-08-29T13:01:38.664Z,2.25
2022-08-29T13:04:18.888Z,2.05
2022-08-29T13:06:58.657Z,1.80
2022-08-29T13:09:32.994Z,2.30
2022-08-29T13:12:11.603Z,2.00
2022-08-29T13:14:57.168Z,2.20
2022-08-29T13:20:49.148Z,2.10
2022-08-29T13:23:26.630Z,2.05
2022-08-29T13:26:03.090Z,2.10
2022-08-29T13:28:40.113Z,1.90
2022-08-29T13:31:33.027Z,2.20
2022-08-29T13:34:20.749Z,1.92
2022-08-29T13:37:10.545Z,1.80
2022-08-29T13:39:49.016Z,1.83
2022-08-29T13:42:33.457Z,1.80
2022-08-29T13:45:12.231Z,1.90
2022-08-29T13:47:50.835Z,1.92
2022-08-29T13:50:19.097Z,1.85
2022-08-29T13:52:52.814Z,1.90
2022-08-29T13:55:21.865Z,1.70
2022-08-29T13:57:53.639Z,2.10
2022-08-29T14:00:32.029Z,1.80
2022-08-29T14:03:03.428Z,1.73
2022-08-29T14:05:32.023Z,1.80
2022-08-29T14:08:01.596Z,1.65
2022-08-29T14:10:29.769Z,1.67
2022-08-29T14:12:57.944Z,1.50
2022-08-29T14:15:26.448Z,1.73
2022-08-29T14:17:54.743Z,1.73
2022-08-29T14:20:23.114Z,1.63
2022-08-29T14:22:51.472Z,1.60
2022-08-29T14:25:21.414Z,1.52
2022-08-29T14:27:50.245Z,1.35
2022-08-29T14:30:21.918Z,1.75
2022-08-29T14:32:50.345Z,1.65
2022-08-29T14:35:27.635Z,1.73
2022-08-29T14:38:02.759Z,1.98
2022-08-29T14:40:33.990Z,1.80
2022-08-29T14:43:04.185Z,1.58
2022-08-29T14:45:32.956Z,1.77
2022-08-29T14:48:05.706Z,1.90
2022-08-29T14:50:34.911Z,1.83
2022-08-29T14:53:03.066Z,1.60
2022-08-29T14:55:33.687Z,1.65
2022-08-29T14:58:01.878Z,1.67
2022-08-29T15:00:33.894Z,1.77
2022-08-29T15:03:02.373Z,1.60
2022-08-29T15:05:30.533Z,2.08
2022-08-29T15:08:01.890Z,1.60
2022-08-29T15:10:35.909Z,2.15
2022-08-29T15:13:05.130Z,2.03
2022-08-29T15:15:33.247Z,1.73
2022-08-29T15:18:05.277Z,1.83
2022-08-29T15:20:36.625Z,2.00
2022-08-29T15:23:08.127Z,2.00
2022-08-29T15:25:37.746Z,1.60
2022-08-29T15:28:08.672Z,2.00
2022-08-29T15:30:36.925Z,1.90
2022-08-29T15:33:05.423Z,1.88
2022-08-29T15:35:33.717Z,2.05
2022-08-29T15:38:01.974Z,2.15
2022-08-29T15:40:30.241Z,2.13
2022-08-29T15:42:59.793Z,2.33
2022-08-29T15:45:28.629Z,2.55
2022-08-29T15:48:00.677Z,2.40
2022-08-29T15:50:29.773Z,2.40
2022-08-29T15:52:58.036Z,2.50
2022-08-29T15:55:26.229Z,2.20
2022-08-29T15:57:54.658Z,2.40
2022-08-29T16:00:30.538Z,2.33
2022-08-29T16:03:02.803Z,2.30
2022-08-29T16:05:32.465Z,2.58
2022-08-29T16:08:00.903Z,2.70
2022-08-29T16:10:29.291Z,2.63
2022-08-29T16:12:57.471Z,2.65
2022-08-29T16:15:30.827Z,3.17
2022-08-29T16:18:00.211Z,2.80
2022-08-29T16:20:28.604Z,2.78
2022-08-29T16:22:57.260Z,2.90
2022-08-29T16:25:27.721Z,2.78
2022-08-29T16:27:57.088Z,2.72
2022-08-29T16:30:27.500Z,2.88
2022-08-29T16:32:56.106Z,2.83
2022-08-29T16:35:25.983Z,2.38
2022-08-29T16:38:02.279Z,3.45
2022-08-29T16:40:32.034Z,2.83
2022-08-29T16:43:01.562Z,2.78
2022-08-29T16:45:31.952Z,2.90
2022-08-29T16:48:00.504Z,2.63
2022-08-29T16:50:30.146Z,2.88
2022-08-29T16:52:58.444Z,2.80
2022-08-29T16:55:28.650Z,2.95
2022-08-29T16:58:14.889Z,2.90
2022-08-29T17:00:45.417Z,2.97
2022-08-29T17:03:18.063Z,2.88
2022-08-29T17:05:48.761Z,2.90
2022-08-29T17:08:16.490Z,3.10
2022-08-29T17:10:43.791Z,3.05
2022-08-29T17:13:11.150Z,3.13
2022-08-29T17:15:38.250Z,3.45
2022-08-29T17:18:08.436Z,3.13
2022-08-29T17:20:37.829Z,3.55
2022-08-29T17:23:10.139Z,3.35
2022-08-29T17:25:40.526Z,3.22
2022-08-29T17:28:24.529Z,3.13
2022-08-29T17:30:53.009Z,3.22
2022-08-29T17:33:27.174Z,3.70
2022-08-29T17:35:56.204Z,3.63
2022-08-29T17:38:26.259Z,3.55
2022-08-29T17:40:59.104Z,3.40
2022-08-29T17:43:31.162Z,3.00
2022-08-29T17:46:02.024Z,3.25
2022-08-29T17:48:32.454Z,3.60
2022-08-29T17:51:00.688Z,3.22
2022-08-29T17:53:29.856Z,3.20
2022-08-29T17:55:58.363Z,3.25
2022-08-29T17:58:26.594Z,2.85
2022-08-29T18:00:54.817Z,3.38
2022-08-29T18:03:24.795Z,3.47
2022-08-29T18:05:54.405Z,3.38
2022-08-29T18:08:22.620Z,3.17
2022-08-29T18:10:51.625Z,2.75
2022-08-29T18:13:21.761Z,3.20
2022-08-29T18:15:50.546Z,3.08
2022-08-29T18:18:21.078Z,3.20
2022-08-29T18:20:49.435Z,3.47
2022-08-29T18:23:19.397Z,3.03
2022-08-29T18:25:47.810Z,4.50
2022-08-29T18:28:16.155Z,2.78
2022-08-29T18:30:44.559Z,3.08
2022-08-29T18:33:13.010Z,3.17
2022-08-29T18:35:41.546Z,2.85
2022-08-29T18:38:10.210Z,3.20
2022-08-29T18:40:40.021Z,3.08
2022-08-29T18:43:09.889Z,3.10
2022-08-29T18:45:38.618Z,3.50
2022-08-29T18:48:07.149Z,3.60
2022-08-29T18:50:35.484Z,3.88
2022-08-29T18:53:07.612Z,4.28
2022-08-29T18:55:36.114Z,3.30
2022-08-29T18:58:06.386Z,4.00
2022-08-29T19:00:35.558Z,4.45
2022-08-29T19:03:05.216Z,4.78
2022-08-29T19:05:42.166Z,4.03
2022-08-29T19:08:11.652Z,3.22
2022-08-29T19:10:40.063Z,3.05
2022-08-29T19:13:10.141Z,3.22
2022-08-29T19:15:41.474Z,2.92
2022-08-29T19:18:11.711Z,2.72
2022-08-29T19:20:58.181Z,3.20
2022-08-29T19:23:26.744Z,3.60
2022-08-29T19:25:55.133Z,2.80
2022-08-29T19:28:27.919Z,2.80
2022-08-29T19:30:56.284Z,2.75
2022-08-29T19:33:24.894Z,3.28
2022-08-29T19:35:53.715Z,4.18
2022-08-29T19:38:23.902Z,2.60
2022-08-29T19:40:55.475Z,2.72
2022-08-29T19:43:29.653Z,2.85
2022-08-29T19:45:59.716Z,3.03
2022-08-29T19:48:29.653Z,3.50
2022-08-29T19:50:58.373Z,3.25
2022-08-29T19:53:27.187Z,3.08
2022-08-29T19:55:56.911Z,2.83
2022-08-29T19:58:31.964Z,3.10
2022-08-29T20:01:02.686Z,3.13
2022-08-29T20:03:32.175Z,3.10
2022-08-29T20:06:05.741Z,2.85
2022-08-29T20:08:35.858Z,3.72
2022-08-29T20:11:06.521Z,3.17
2022-08-29T20:13:36.971Z,2.60
2022-08-29T20:16:12.645Z,2.47
2022-08-29T20:18:42.393Z,3.33
2022-08-29T20:21:13.309Z,3.33
2022-08-29T20:23:49.686Z,3.60
2022-08-29T20:26:20.232Z,2.80
2022-08-29T20:28:52.039Z,3.28
2022-08-29T20:31:21.343Z,3.17
2022-08-29T20:33:50.286Z,3.03
2022-08-29T20:36:38.589Z,3.63
2022-08-29T20:39:09.227Z,2.88
2022-08-29T20:41:38.032Z,3.85
2022-08-29T20:44:09.871Z,3.53
2022-08-29T20:46:41.098Z,3.42
2022-08-29T20:49:09.690Z,3.17
2022-08-29T20:51:43.278Z,3.30
2022-08-29T20:54:14.105Z,3.20
2022-08-29T20:56:42.749Z,3.38
2022-08-29T20:59:12.775Z,3.22
2022-08-29T21:01:41.653Z,3.45
2022-08-29T21:04:29.505Z,3.05
2022-08-29T21:07:00.214Z,3.33
2022-08-29T21:09:29.023Z,2.80
2022-08-29T21:11:57.672Z,2.85
2022-08-29T21:14:28.363Z,2.67
2022-08-29T21:16:58.286Z,2.63
2022-08-29T21:19:29.861Z,2.95
2022-08-29T21:21:59.919Z,2.83
2022-08-29T21:24:29.469Z,3.10
2022-08-29T21:26:58.248Z,2.78
2022-08-29T21:29:28.391Z,3.08
2022-08-29T21:31:57.054Z,2.85
2022-08-29T21:34:25.492Z,3.50
2022-08-29T21:36:54.492Z,2.63
2022-08-29T21:39:28.452Z,2.47
2022-08-29T21:42:02.395Z,2.90
2022-08-29T21:44:32.686Z,2.60
2022-08-29T21:47:01.942Z,2.92
2022-08-29T21:49:31.282Z,2.67
2022-08-29T21:51:59.832Z,2.45
2022-08-29T21:54:28.515Z,2.97
2022-08-29T21:56:56.770Z,2.60
2022-08-29T21:59:27.908Z,2.88
2022-08-29T22:01:57.709Z,3.00
2022-08-29T22:04:28.595Z,3.08
2022-08-29T22:06:59.651Z,3.30
2022-08-29T22:09:30.165Z,2.92
2022-08-29T22:11:58.887Z,3.00
2022-08-29T22:14:42.364Z,2.60
2022-08-29T22:17:12.069Z,2.55
2022-08-29T22:19:40.731Z,2.83
2022-08-29T22:22:10.194Z,2.80
2022-08-29T22:24:38.530Z,3.10
2022-08-29T22:27:07.189Z,3.03
2022-08-29T22:29:35.479Z,3.08
2022-08-29T22:32:04.245Z,3.08
2022-08-29T22:34:34.181Z,3.40
2022-08-29T22:37:02.517Z,3.33
2022-08-29T22:39:30.814Z,2.88
2022-08-29T22:41:59.121Z,3.28
2022-08-29T22:47:16.497Z,2.83
2022-08-29T22:49:46.362Z,3.00
2022-08-29T22:52:14.759Z,3.40
2022-08-29T22:54:43.261Z,3.00
2022-08-29T22:57:15.808Z,3.55
2022-08-29T22:59:45.336Z,3.65
2022-08-29T23:02:14.704Z,3.35
2022-08-29T23:04:43.793Z,3.50
2022-08-29T23:07:13.742Z,3.75
2022-08-29T23:09:43.641Z,3.33
2022-08-29T23:12:14.334Z,3.78
2022-08-29T23:14:46.342Z,3.40
2022-08-29T23:17:15.553Z,3.42
2022-08-29T23:19:44.677Z,3.10
2022-08-29T23:22:15.428Z,3.22
2022-08-29T23:24:51.605Z,3.08
2022-08-29T23:27:28.706Z,3.15
2022-08-29T23:29:58.040Z,2.85
2022-08-29T23:32:26.653Z,3.42
2022-08-29T23:34:54.994Z,3.60
2022-08-29T23:37:24.825Z,3.40
2022-08-29T23:39:53.273Z,3.38
2022-08-29T23:42:21.516Z,3.22
2022-08-29T23:44:49.898Z,3.42
2022-08-29T23:47:18.940Z,3.30
2022-08-29T23:49:47.579Z,3.97
2022-08-29T23:52:15.802Z,3.47
2022-08-29T23:54:45.347Z,3.83
2022-08-29T23:57:13.706Z,4.00
2022-08-29T23:59:59.532Z,3.58
